Time;durP1;ratioP1;P1;durP2;ratioP2;P2;SDS_P1;SDS_P2;PMS_P1;PMS_P2;Temp;Humidity;BMP_temperature;BMP_pressure;BME280_temperature;BME280_humidity;BME280_pressure;Samples;Min_cycle;Max_cycle;Signal;HPM_P1;HPM_P2
2022/06/01 00:00:56;;;;;;;5.40;1.40;;;19.70;83.60;;;;;;4967878;28;20035;-78
2022/06/01 00:03:23;;;;;;;7.28;1.70;;;19.70;83.40;;;;;;4969237;28;20033;-78
2022/06/01 00:05:53;;;;;;;5.22;1.75;;;19.60;83.50;;;;;;4975518;28;20073;-78
2022/06/01 00:08:20;;;;;;;7.60;1.70;;;19.60;84.00;;;;;;4975604;28;20030;-79
2022/06/01 00:10:46;;;;;;;5.15;1.55;;;19.60;83.80;;;;;;4975647;28;20054;-78
2022/06/01 00:13:12;;;;;;;4.93;1.42;;;19.60;84.10;;;;;;4975236;28;20035;-78
2022/06/01 00:15:37;;;;;;;10.50;2.28;;;19.50;83.90;;;;;;4975764;28;20031;-79
2022/06/01 00:18:03;;;;;;;8.10;1.88;;;19.50;84.60;;;;;;4958312;28;20035;-79
2022/06/01 00:20:29;;;;;;;5.05;1.50;;;19.50;84.90;;;;;;4982903;28;20031;-79
2022/06/01 00:22:56;;;;;;;3.13;1.33;;;19.30;85.50;;;;;;4973948;28;20039;-79
2022/06/01 00:25:22;;;;;;;8.93;1.80;;;19.30;85.70;;;;;;4975534;28;20063;-79
2022/06/01 00:27:48;;;;;;;3.65;1.30;;;19.20;86.50;;;;;;4974699;28;20508;-80
2022/06/01 00:30:16;;;;;;;5.75;1.60;;;19.20;86.70;;;;;;4974651;28;20110;-81
2022/06/01 00:32:42;;;;;;;6.30;1.77;;;19.10;86.80;;;;;;4974326;28;20018;-80
2022/06/01 00:35:10;;;;;;;4.68;1.70;;;19.20;87.10;;;;;;4975096;28;20034;-81
2022/06/01 00:37:36;;;;;;;6.45;1.55;;;19.10;87.40;;;;;;4975069;28;20031;-80
2022/06/01 00:40:04;;;;;;;7.07;1.48;;;19.00;88.00;;;;;;4975127;28;20030;-80
2022/06/01 00:42:32;;;;;;;4.50;1.40;;;19.00;88.40;;;;;;4975175;28;20061;-80
2022/06/01 00:45:00;;;;;;;7.53;2.00;;;19.00;88.80;;;;;;4968101;28;20058;-80
2022/06/01 00:47:27;;;;;;;6.28;1.90;;;18.90;89.20;;;;;;4955863;28;20027;-81
2022/06/01 00:50:02;;;;;;;8.93;2.80;;;18.90;89.60;;;;;;4955479;28;20027;-80
2022/06/01 00:52:38;;;;;;;5.50;1.38;;;18.90;90.00;;;;;;4972044;28;20019;-80
2022/06/01 00:55:12;;;;;;;5.03;1.88;;;18.90;90.20;;;;;;4975120;28;20456;-80
2022/06/01 00:57:41;;;;;;;9.02;1.92;;;18.90;90.30;;;;;;4975141;28;20019;-80
2022/06/01 01:00:12;;;;;;;6.15;1.40;;;18.90;90.30;;;;;;4973224;28;20035;-80
2022/06/01 01:02:39;;;;;;;6.20;1.85;;;18.90;90.40;;;;;;4955100;28;20039;-81
2022/06/01 01:05:06;;;;;;;4.35;1.50;;;18.90;90.30;;;;;;4955712;28;20031;-80
2022/06/01 01:07:33;;;;;;;12.75;2.33;;;18.80;90.50;;;;;;4955420;28;20033;-80
2022/06/01 01:09:58;;;;;;;8.30;1.55;;;18.80;90.30;;;;;;4955001;28;20069;-80
2022/06/01 01:12:24;;;;;;;4.93;1.52;;;18.70;90.40;;;;;;4955171;28;20058;-81
2022/06/01 01:14:51;;;;;;;10.40;1.75;;;18.60;90.60;;;;;;4954786;28;20023;-80
2022/06/01 01:17:17;;;;;;;7.07;1.58;;;18.70;90.50;;;;;;4955055;28;20383;-81
2022/06/01 01:19:52;;;;;;;4.90;1.63;;;18.80;90.40;;;;;;4964165;28;20030;-80
2022/06/01 01:22:38;;;;;;;5.50;1.60;;;18.70;90.50;;;;;;4972999;28;20069;-81
2022/06/01 01:25:25;;;;;;;7.75;1.38;;;18.70;90.70;;;;;;4974061;28;20019;-80
2022/06/01 01:27:54;;;;;;;6.18;1.65;;;18.60;91.00;;;;;;4973702;28;20073;-80
2022/06/01 01:30:36;;;;;;;12.65;1.50;;;18.60;91.10;;;;;;4973686;28;20025;-80
2022/06/01 01:33:08;;;;;;;7.00;1.42;;;18.50;91.40;;;;;;4974309;28;20030;-81
2022/06/01 01:35:34;;;;;;;5.75;1.77;;;18.60;91.60;;;;;;4973689;28;20034;-80
2022/06/01 01:38:06;;;;;;;7.63;1.40;;;18.40;92.00;;;;;;4972100;28;20109;-80
2022/06/01 01:40:32;;;;;;;14.20;2.42;;;18.50;92.10;;;;;;4955205;28;20090;-80
2022/06/01 01:43:00;;;;;;;7.18;1.77;;;18.30;92.50;;;;;;4954110;28;20039;-81
2022/06/01 01:45:32;;;;;;;5.10;1.77;;;18.30;92.60;;;;;;4954372;28;20032;-81
2022/06/01 01:47:58;;;;;;;6.80;1.92;;;18.30;92.90;;;;;;4966797;28;20034;-80
2022/06/01 01:50:24;;;;;;;9.27;2.20;;;18.30;93.20;;;;;;4973750;28;20093;-81
2022/06/01 01:52:51;;;;;;;6.25;1.98;;;18.30;93.50;;;;;;4973686;28;20443;-80
2022/06/01 01:55:42;;;;;;;7.05;1.70;;;18.10;94.10;;;;;;4973882;28;20110;-80
2022/06/01 01:58:24;;;;;;;8.80;1.80;;;18.10;94.70;;;;;;4973491;28;20479;-80
2022/06/01 02:00:56;;;;;;;6.47;2.30;;;18.10;94.80;;;;;;4966907;28;20035;-80
2022/06/01 02:03:29;;;;;;;7.60;2.40;;;18.00;95.30;;;;;;4954285;28;20118;-80
2022/06/01 02:06:14;;;;;;;11.60;2.13;;;18.00;95.70;;;;;;4953865;28;20034;-80
2022/06/01 02:09:01;;;;;;;14.20;1.98;;;18.00;96.00;;;;;;4954671;28;20375;-81
2022/06/01 02:14:29;;;;;;;8.52;2.47;;;18.00;96.60;;;;;;4954075;29;20500;-80
2022/06/01 02:17:16;;;;;;;5.47;2.08;;;18.10;96.30;;;;;;4963807;28;20089;-80
2022/06/01 02:19:50;;;;;;;7.25;2.42;;;18.00;96.60;;;;;;4973057;28;20166;-80
2022/06/01 02:22:16;;;;;;;8.13;2.15;;;17.90;97.00;;;;;;4973004;28;20054;-81
2022/06/01 02:24:43;;;;;;;15.10;2.20;;;17.80;97.30;;;;;;4971953;28;20106;-80
2022/06/01 02:27:11;;;;;;;6.28;2.17;;;17.90;97.30;;;;;;4972748;28;20027;-80
2022/06/01 02:29:58;;;;;;;9.77;2.10;;;17.80;97.50;;;;;;4973864;28;20493;-81
2022/06/01 02:32:28;;;;;;;7.85;2.50;;;17.70;98.10;;;;;;4959162;28;20113;-80
2022/06/01 02:34:56;;;;;;;5.10;2.40;;;17.70;98.30;;;;;;4972662;28;20023;-80
2022/06/01 02:37:22;;;;;;;9.60;2.90;;;17.60;98.50;;;;;;4973171;28;20038;-80
2022/06/01 02:39:52;;;;;;;8.10;2.50;;;17.60;99.00;;;;;;4972510;28;20027;-81
2022/06/01 02:42:30;;;;;;;10.27;2.88;;;17.60;99.20;;;;;;4972679;28;20486;-81
2022/06/01 02:45:05;;;;;;;6.18;2.20;;;17.70;99.00;;;;;;4962203;28;20106;-80
2022/06/01 02:47:34;;;;;;;9.63;2.35;;;17.80;98.90;;;;;;4953787;28;20534;-80
2022/06/01 02:50:01;;;;;;;6.75;2.40;;;17.80;99.10;;;;;;4953669;28;20047;-80
2022/06/01 02:52:28;;;;;;;5.75;2.20;;;17.70;99.40;;;;;;4953665;28;20108;-80
2022/06/01 02:54:53;;;;;;;7.13;2.22;;;17.70;99.40;;;;;;4953727;28;20525;-81
2022/06/01 02:57:20;;;;;;;12.63;2.60;;;17.60;99.80;;;;;;4967473;28;20062;-80
2022/06/01 02:59:46;;;;;;;11.43;2.33;;;17.50;99.90;;;;;;4972467;28;20384;-80
2022/06/01 03:02:12;;;;;;;10.07;3.10;;;17.50;99.90;;;;;;4955096;28;20122;-80
2022/06/01 03:04:40;;;;;;;9.13;2.42;;;17.50;99.90;;;;;;4953638;28;20099;-80
2022/06/01 03:07:06;;;;;;;10.95;2.42;;;17.50;99.90;;;;;;4953141;28;20031;-80
2022/06/01 03:09:32;;;;;;;5.90;2.25;;;17.60;99.90;;;;;;4953868;28;20083;-80
2022/06/01 03:11:59;;;;;;;7.85;2.55;;;17.50;99.90;;;;;;4953211;28;20035;-80
2022/06/01 03:14:25;;;;;;;7.28;2.33;;;17.60;99.90;;;;;;4960602;28;20031;-80
2022/06/01 03:16:51;;;;;;;6.30;2.22;;;17.60;99.90;;;;;;4972684;28;20042;-80
2022/06/01 03:19:17;;;;;;;9.10;2.15;;;17.60;99.90;;;;;;4972645;28;20027;-80
2022/06/01 03:21:43;;;;;;;8.10;2.20;;;17.60;99.90;;;;;;4971345;28;20053;-80
2022/06/01 03:24:09;;;;;;;5.68;2.17;;;17.60;99.90;;;;;;4972525;28;20030;-80
2022/06/01 03:26:36;;;;;;;7.53;2.58;;;17.50;99.90;;;;;;4972729;28;20027;-80
2022/06/01 03:29:03;;;;;;;9.98;2.10;;;17.50;99.90;;;;;;4972027;28;20102;-80
2022/06/01 03:31:29;;;;;;;8.13;1.95;;;17.50;99.90;;;;;;4973071;28;20023;-80
2022/06/01 03:33:55;;;;;;;5.95;2.20;;;17.50;99.90;;;;;;4972644;28;20086;-81
2022/06/01 03:36:21;;;;;;;6.28;2.40;;;17.30;99.90;;;;;;4970735;28;20094;-80
2022/06/01 03:38:47;;;;;;;11.77;2.78;;;17.30;99.90;;;;;;4972548;28;20026;-80
2022/06/01 03:41:13;;;;;;;8.15;2.50;;;17.10;99.90;;;;;;4971997;28;20034;-80
2022/06/01 03:46:23;;;;;;;9.45;2.42;;;17.00;99.90;;;;;;4975212;28;20086;-80
2022/06/01 03:48:50;;;;;;;5.57;2.00;;;16.90;99.90;;;;;;4973510;28;20014;-80
2022/06/01 03:51:16;;;;;;;7.03;2.20;;;17.00;99.90;;;;;;4956531;28;20059;-80
2022/06/01 03:53:42;;;;;;;13.43;2.47;;;17.10;99.90;;;;;;4956593;28;20471;-80
2022/06/01 03:56:08;;;;;;;12.80;3.40;;;17.00;99.90;;;;;;4956107;28;20027;-80
2022/06/01 03:58:36;;;;;;;14.93;3.42;;;17.00;99.90;;;;;;4955450;28;20035;-80
2022/06/01 04:01:03;;;;;;;6.35;2.22;;;17.00;99.90;;;;;;4964707;28;20089;-80
2022/06/01 04:03:30;;;;;;;6.00;2.20;;;17.00;99.90;;;;;;4973991;28;20487;-80
2022/06/01 04:05:55;;;;;;;6.80;2.83;;;17.00;99.90;;;;;;4974418;28;20114;-80
2022/06/01 04:08:21;;;;;;;5.10;1.95;;;17.10;99.90;;;;;;4975296;28;20525;-80
2022/06/01 04:10:47;;;;;;;7.13;2.30;;;17.20;99.90;;;;;;4974560;28;20107;-79
2022/06/01 04:13:14;;;;;;;18.17;2.97;;;17.10;99.90;;;;;;4975897;28;20022;-81
2022/06/01 04:15:40;;;;;;;10.88;2.20;;;17.10;99.90;;;;;;4975357;28;20035;-82
2022/06/01 04:18:07;;;;;;;10.02;2.35;;;17.10;99.90;;;;;;4974107;28;20410;-82
2022/06/01 04:20:32;;;;;;;5.75;2.35;;;17.10;99.90;;;;;;4975625;28;20031;-82
2022/06/01 04:23:00;;;;;;;8.88;2.20;;;17.20;99.90;;;;;;4974733;28;20050;-82
2022/06/01 04:25:28;;;;;;;4.10;1.92;;;17.20;99.90;;;;;;4975376;28;20023;-80
2022/06/01 04:27:53;;;;;;;12.07;2.80;;;17.20;99.90;;;;;;4973958;28;20027;-80
2022/06/01 04:30:20;;;;;;;8.82;2.38;;;17.20;99.90;;;;;;4972669;28;20474;-80
2022/06/01 04:32:49;;;;;;;9.52;2.35;;;17.20;99.90;;;;;;4975076;28;20102;-81
2022/06/01 04:35:15;;;;;;;8.18;2.40;;;17.20;99.90;;;;;;4974348;28;20039;-79
2022/06/01 04:37:41;;;;;;;6.05;2.03;;;17.10;99.90;;;;;;4956564;28;20078;-80
2022/06/01 04:40:08;;;;;;;8.23;2.58;;;17.10;99.90;;;;;;4962588;28;20042;-80
2022/06/01 04:42:35;;;;;;;5.97;2.10;;;17.20;99.90;;;;;;4963497;28;20027;-82
2022/06/01 04:45:00;;;;;;;6.90;2.13;;;17.20;99.90;;;;;;4959609;28;20122;-81
2022/06/01 04:47:26;;;;;;;7.47;2.33;;;17.20;99.90;;;;;;4969002;28;20101;-83
2022/06/01 04:49:51;;;;;;;7.78;2.50;;;17.20;99.90;;;;;;4966561;28;20042;-83
2022/06/01 04:52:17;;;;;;;10.85;2.72;;;17.10;99.90;;;;;;4964035;28;20122;-84
2022/06/01 04:54:43;;;;;;;5.20;1.85;;;17.10;99.90;;;;;;4966391;28;20431;-80
2022/06/01 04:57:08;;;;;;;10.70;3.13;;;17.10;99.90;;;;;;4967051;28;20023;-80
2022/06/01 04:59:34;;;;;;;9.90;2.85;;;17.10;99.90;;;;;;4970253;28;20078;-80
2022/06/01 05:02:01;;;;;;;9.93;2.30;;;17.20;99.90;;;;;;4955723;28;20110;-81
2022/06/01 05:04:28;;;;;;;5.93;2.10;;;17.20;99.90;;;;;;4954855;28;20410;-81
2022/06/01 05:06:58;;;;;;;9.43;2.60;;;17.10;99.90;;;;;;4955073;28;20420;-80
2022/06/01 05:09:24;;;;;;;5.82;2.33;;;17.10;99.90;;;;;;4968791;28;20053;-79
2022/06/01 05:11:50;;;;;;;18.10;2.85;;;17.10;99.90;;;;;;4964007;28;20059;-80
2022/06/01 05:14:17;;;;;;;8.50;2.58;;;17.00;99.90;;;;;;4960852;28;20487;-80
2022/06/01 05:16:43;;;;;;;6.78;2.33;;;16.90;99.90;;;;;;4974033;28;20031;-80
2022/06/01 06:11:38;;;;;;;6.85;2.70;;;17.60;99.90;;;;;;5206640;23;20338;-76
2022/06/01 06:14:05;;;;;;;9.90;2.42;;;17.70;99.90;;;;;;4991864;28;20030;-76
2022/06/01 06:16:46;;;;;;;9.50;2.22;;;17.70;99.90;;;;;;4992863;28;20767;-76
2022/06/01 06:19:17;;;;;;;10.75;2.88;;;17.90;99.90;;;;;;4993263;28;20359;-79
2022/06/01 06:21:44;;;;;;;6.97;1.90;;;18.00;99.90;;;;;;4987230;28;20033;-79
2022/06/01 06:24:13;;;;;;;7.88;2.40;;;18.40;99.90;;;;;;4977615;28;20035;-78
2022/06/01 06:26:42;;;;;;;9.10;2.28;;;18.50;99.90;;;;;;4973708;28;20026;-79
2022/06/01 06:29:09;;;;;;;9.98;2.28;;;18.60;99.90;;;;;;4991027;28;20607;-79
2022/06/01 06:31:36;;;;;;;7.32;2.00;;;18.60;99.90;;;;;;4986744;28;20019;-79
2022/06/01 06:34:02;;;;;;;10.35;2.20;;;18.70;99.90;;;;;;4987163;28;20034;-79
2022/06/01 06:36:28;;;;;;;6.18;2.10;;;18.70;99.90;;;;;;4992641;28;20030;-78
2022/06/01 06:38:54;;;;;;;5.47;2.00;;;18.70;99.90;;;;;;4992745;28;20014;-79
2022/06/01 06:41:24;;;;;;;7.45;2.53;;;18.80;99.90;;;;;;4992474;28;20030;-79
2022/06/01 06:43:51;;;;;;;8.02;2.53;;;18.80;99.90;;;;;;4992771;28;20037;-80
2022/06/01 06:46:19;;;;;;;8.52;2.83;;;18.90;99.90;;;;;;4992646;28;20080;-79
2022/06/01 06:48:48;;;;;;;9.45;2.40;;;19.00;99.90;;;;;;4988123;28;20024;-79
2022/06/01 06:51:15;;;;;;;9.25;2.42;;;19.10;99.90;;;;;;4987737;28;20422;-79
2022/06/01 06:53:41;;;;;;;6.40;2.17;;;19.20;99.90;;;;;;4981121;28;20018;-79
2022/06/01 06:56:07;;;;;;;8.70;3.25;;;19.10;99.90;;;;;;4976047;28;20042;-79
2022/06/01 06:58:35;;;;;;;11.60;2.60;;;19.10;99.90;;;;;;4988235;28;20030;-79
2022/06/01 07:01:02;;;;;;;10.98;2.85;;;19.00;99.90;;;;;;4983524;28;20089;-80
2022/06/01 07:03:27;;;;;;;7.35;2.78;;;19.10;99.90;;;;;;4991965;28;20118;-78
2022/06/01 07:08:42;;;;;;;9.65;3.22;;;19.40;99.80;;;;;;4984714;28;20401;-79
2022/06/01 07:11:09;;;;;;;8.60;3.10;;;19.30;99.80;;;;;;4976471;28;20057;-79
2022/06/01 07:13:35;;;;;;;9.60;3.10;;;19.30;99.50;;;;;;4986191;28;20022;-80
2022/06/01 07:16:15;;;;;;;7.40;2.88;;;19.40;99.50;;;;;;4979309;28;20028;-78
2022/06/01 07:18:43;;;;;;;5.63;2.30;;;19.40;99.20;;;;;;4988830;28;20037;-79
2022/06/01 07:21:09;;;;;;;19.05;2.92;;;19.50;99.20;;;;;;4994172;28;20101;-79
2022/06/01 07:23:37;;;;;;;10.30;3.25;;;19.50;99.50;;;;;;4993083;28;20022;-79
2022/06/01 07:26:04;;;;;;;9.82;2.83;;;19.70;98.50;;;;;;4993882;28;20096;-80
2022/06/01 07:28:30;;;;;;;9.30;2.97;;;19.70;98.40;;;;;;4986820;28;20030;-79
2022/06/01 07:30:59;;;;;;;6.80;3.20;;;19.80;98.70;;;;;;4983643;28;20056;-80
2022/06/01 07:33:28;;;;;;;8.07;3.17;;;19.80;98.70;;;;;;4980217;28;20054;-79
2022/06/01 07:35:57;;;;;;;12.85;3.35;;;19.90;98.50;;;;;;4983440;28;20397;-80
2022/06/01 07:43:57;;;;;;;14.27;3.17;;;20.10;97.50;;;;;;4988114;28;20033;-79
2022/06/01 07:46:23;;;;;;;15.95;3.13;;;20.20;97.00;;;;;;4990146;28;20030;-79
2022/06/01 07:48:49;;;;;;;9.73;3.03;;;20.30;96.90;;;;;;4991451;28;20022;-79
2022/06/01 07:51:16;;;;;;;10.02;2.70;;;20.40;97.00;;;;;;4983775;28;20383;-79
2022/06/01 07:53:41;;;;;;;10.68;3.25;;;20.50;97.00;;;;;;4984871;28;20030;-78
2022/06/01 07:56:08;;;;;;;8.52;2.67;;;20.70;97.30;;;;;;4984283;28;20022;-79
2022/06/01 07:58:35;;;;;;;9.38;2.80;;;20.70;96.20;;;;;;4984808;28;20494;-79
2022/06/01 08:01:00;;;;;;;7.63;3.30;;;20.80;96.40;;;;;;4994031;28;20414;-80
2022/06/01 08:03:26;;;;;;;10.50;2.60;;;20.70;96.30;;;;;;4982799;28;20054;-79
2022/06/01 08:05:52;;;;;;;6.85;2.47;;;20.90;95.80;;;;;;4976418;28;20031;-80
2022/06/01 08:08:18;;;;;;;11.43;3.03;;;21.00;95.90;;;;;;4976707;28;20385;-74
2022/06/01 08:10:44;;;;;;;9.18;2.90;;;21.20;95.60;;;;;;4976940;28;20055;-74
2022/06/01 08:13:12;;;;;;;9.13;3.10;;;21.40;95.40;;;;;;4976223;28;20035;-74
2022/06/01 08:15:49;;;;;;;9.82;2.95;;;21.50;95.70;;;;;;4983038;28;20025;-79
2022/06/01 08:18:21;;;;;;;9.30;2.90;;;21.80;94.90;;;;;;4995912;28;20448;-79
2022/06/01 08:20:48;;;;;;;7.75;2.63;;;21.90;94.70;;;;;;4995589;28;20053;-80
2022/06/01 08:23:14;;;;;;;8.02;3.00;;;22.10;94.30;;;;;;4995184;28;20033;-83
2022/06/01 08:25:41;;;;;;;7.35;2.83;;;22.40;94.10;;;;;;4995461;28;20072;-77
2022/06/01 08:28:07;;;;;;;10.93;2.92;;;22.60;94.60;;;;;;4994214;28;20610;-77
2022/06/01 08:30:34;;;;;;;8.73;2.42;;;22.80;93.20;;;;;;4987824;28;20520;-78
2022/06/01 08:33:01;;;;;;;5.50;2.63;;;23.10;92.70;;;;;;4983034;28;20029;-77
2022/06/01 08:35:47;;;;;;;7.45;2.50;;;23.50;92.50;;;;;;4982464;28;20041;-77
2022/06/01 08:38:13;;;;;;;6.15;2.40;;;23.70;92.60;;;;;;4987820;28;20085;-77
2022/06/01 09:49:54;;;;;;;7.53;2.42;;;28.40;71.20;;;;;;5962849;23;20479;-82
2022/06/01 09:52:34;;;;;;;9.75;2.45;;;28.70;71.60;;;;;;5012851;28;20045;-81
2022/06/01 09:55:24;;;;;;;7.80;2.05;;;28.80;71.30;;;;;;5011880;28;20028;-80
2022/06/01 09:58:05;;;;;;;8.70;1.90;;;28.70;72.10;;;;;;4987846;28;20048;-79
2022/06/01 10:06:25;;;;;;;6.05;1.90;;;28.60;69.50;;;;;;5005348;28;20496;-78
2022/06/01 10:09:11;;;;;;;12.18;2.17;;;28.80;70.90;;;;;;4995472;28;20481;-79
2022/06/01 10:11:44;;;;;;;5.15;2.25;;;28.90;68.80;;;;;;5011084;28;20044;-83
2022/06/01 10:14:16;;;;;;;6.85;2.38;;;29.00;69.50;;;;;;5000350;28;20026;-83
2022/06/01 10:16:44;;;;;;;10.50;2.20;;;28.90;68.80;;;;;;4996998;28;20076;-82
2022/06/01 10:19:14;;;;;;;8.65;1.92;;;28.70;69.30;;;;;;5007446;28;20034;-83
2022/06/01 10:22:07;;;;;;;6.68;2.28;;;28.90;69.70;;;;;;5005358;28;20057;-83
2022/06/01 10:24:41;;;;;;;6.68;2.00;;;29.20;69.60;;;;;;4996290;28;20022;-83
2022/06/01 10:27:09;;;;;;;8.00;2.40;;;29.40;68.30;;;;;;4992584;28;20023;-77
2022/06/01 10:29:42;;;;;;;9.18;2.33;;;29.40;68.90;;;;;;4996191;28;20022;-83
2022/06/01 10:32:12;;;;;;;7.50;2.30;;;28.90;66.70;;;;;;5011216;28;20512;-81
2022/06/01 10:34:48;;;;;;;8.52;2.50;;;29.10;68.20;;;;;;5012564;28;20032;-80
2022/06/01 10:37:50;;;;;;;7.25;2.28;;;29.30;67.10;;;;;;5006874;28;20092;-80
2022/06/01 10:40:36;;;;;;;6.90;2.00;;;29.40;67.60;;;;;;4996709;28;20680;-82
2022/06/01 10:43:18;;;;;;;5.35;2.05;;;29.60;68.20;;;;;;4997057;28;20034;-83
2022/06/01 10:45:49;;;;;;;;;;;29.10;67.30;;;;;;4993272;28;20506;-79
2022/06/01 10:48:35;;;;;;;10.85;2.03;;;29.60;68.10;;;;;;4992369;28;20264;-80
2022/06/01 10:51:26;;;;;;;5.57;1.95;;;29.80;66.90;;;;;;5008569;28;20069;-83
2022/06/01 10:54:04;;;;;;;5.80;2.13;;;29.90;66.80;;;;;;4990630;28;20034;-80
2022/06/01 10:56:31;;;;;;;4.80;1.90;;;30.00;66.80;;;;;;5005760;28;20029;-76
2022/06/01 10:59:03;;;;;;;5.97;2.15;;;30.00;65.80;;;;;;4996761;28;20081;-81
2022/06/01 11:01:53;;;;;;;5.63;1.95;;;30.10;66.10;;;;;;5000230;28;20076;-80
2022/06/01 11:04:48;;;;;;;6.82;2.13;;;29.90;65.90;;;;;;5010881;28;20034;-80
2022/06/01 11:07:59;;;;;;;5.82;2.72;;;30.20;66.70;;;;;;4989525;28;20505;-80
2022/06/01 11:10:41;;;;;;;9.40;1.98;;;30.00;65.70;;;;;;4969034;28;20038;-81
2022/06/01 11:13:12;;;;;;;10.40;2.50;;;30.30;65.70;;;;;;4994408;28;20109;-80
2022/06/01 11:16:04;;;;;;;6.32;2.10;;;30.30;64.60;;;;;;4988534;28;20027;-79
2022/06/01 11:19:00;;;;;;;5.13;1.90;;;30.30;65.50;;;;;;4974877;28;20047;-79
2022/06/01 11:21:47;;;;;;;5.75;2.03;;;30.40;65.50;;;;;;4974770;28;20422;-80
2022/06/01 11:24:43;;;;;;;11.15;2.70;;;30.00;64.30;;;;;;4974310;28;20062;-81
2022/06/01 11:27:27;;;;;;;11.50;2.50;;;29.70;66.00;;;;;;4969571;28;20057;-81
2022/06/01 11:30:09;;;;;;;8.38;2.00;;;30.40;66.60;;;;;;4974680;28;20505;-81
2022/06/01 11:32:58;;;;;;;11.07;2.20;;;30.00;65.50;;;;;;4974646;28;20041;-81
2022/06/01 11:35:41;;;;;;;5.47;1.88;;;30.10;65.00;;;;;;4955014;29;20031;-82
2022/06/01 11:38:13;;;;;;;8.13;2.03;;;29.90;65.50;;;;;;4980712;28;20473;-83
2022/06/01 11:41:20;;;;;;;7.75;2.10;;;29.50;65.80;;;;;;4993636;28;20386;-81
2022/06/01 11:43:55;;;;;;;8.48;2.00;;;29.40;67.10;;;;;;4990447;28;20038;-75
2022/06/01 11:46:37;;;;;;;8.82;2.15;;;29.70;65.70;;;;;;5013826;28;20025;-75
2022/06/01 11:49:33;;;;;;;12.43;2.58;;;30.00;66.90;;;;;;5012275;28;20036;-76
2022/06/01 11:52:22;;;;;;;9.68;2.25;;;30.10;68.80;;;;;;4995605;28;20056;-83
2022/06/01 11:55:12;;;;;;;9.98;2.05;;;30.10;67.10;;;;;;5003589;28;20105;-81
2022/06/01 11:57:51;;;;;;;10.65;2.20;;;30.30;65.60;;;;;;4995657;28;20496;-81
2022/06/01 12:00:30;;;;;;;4.97;1.90;;;30.60;66.30;;;;;;5000914;28;20105;-81
2022/06/01 12:03:20;;;;;;;8.25;2.10;;;30.70;66.80;;;;;;5000459;28;20030;-81
2022/06/01 12:06:04;;;;;;;9.07;2.00;;;30.90;64.80;;;;;;4998889;28;20093;-81
2022/06/01 12:08:48;;;;;;;5.07;2.28;;;31.00;64.90;;;;;;4994128;28;20022;-81
2022/06/01 12:11:34;;;;;;;6.45;1.92;;;30.40;64.90;;;;;;5007715;28;20022;-82
2022/06/01 12:13:59;;;;;;;7.70;2.28;;;30.30;65.70;;;;;;4976177;28;20106;-82
2022/06/01 12:16:29;;;;;;;5.25;1.73;;;30.50;66.20;;;;;;5006945;28;20797;-81
2022/06/01 12:19:30;;;;;;;8.93;2.33;;;30.60;66.80;;;;;;4995314;28;20030;-81
2022/06/01 12:22:02;;;;;;;8.32;2.10;;;30.20;64.00;;;;;;4998802;28;20049;-81
2022/06/01 12:30:21;;;;;;;12.30;2.20;;;30.80;66.20;;;;;;5014809;28;20044;-82
2022/06/01 12:32:59;;;;;;;8.50;2.17;;;30.80;63.60;;;;;;5014824;28;20851;-82
2022/06/01 12:35:31;;;;;;;6.40;1.75;;;30.70;63.90;;;;;;5000084;28;20034;-82
2022/06/01 12:38:23;;;;;;;7.10;2.10;;;31.00;64.90;;;;;;4994730;28;20117;-81
2022/06/01 12:40:54;;;;;;;;;;;30.80;64.00;;;;;;4994262;28;20026;-81
2022/06/01 12:43:20;;;;;;;3.97;1.80;;;30.50;64.80;;;;;;5004857;28;19952;-81
2022/06/01 12:45:46;;;;;;;6.93;2.00;;;30.30;65.30;;;;;;5013743;28;20493;-81
2022/06/01 12:48:19;;;;;;;10.48;2.30;;;30.00;64.00;;;;;;4998659;28;20077;-82
2022/06/01 12:50:58;;;;;;;9.25;2.30;;;30.10;64.60;;;;;;4988414;28;20711;-82
2022/06/01 12:53:45;;;;;;;9.10;1.92;;;30.20;65.10;;;;;;4989405;28;20026;-81
2022/06/01 12:56:26;;;;;;;8.40;1.90;;;30.40;65.10;;;;;;4991100;28;20030;-81
2022/06/01 12:58:53;;;;;;;10.35;2.00;;;31.10;64.30;;;;;;4981418;28;20091;-82
2022/06/01 13:01:21;;;;;;;6.10;1.95;;;31.10;63.10;;;;;;4993796;28;20026;-82
2022/06/01 13:03:54;;;;;;;10.60;1.85;;;30.90;63.50;;;;;;4997805;28;20034;-82
2022/06/01 13:06:23;;;;;;;9.07;2.20;;;30.70;64.90;;;;;;4995055;28;20030;-81
2022/06/01 13:09:08;;;;;;;11.85;2.67;;;30.70;64.30;;;;;;4998994;28;20026;-82
2022/06/01 13:11:34;;;;;;;7.30;2.10;;;30.60;65.20;;;;;;4985417;28;20029;-82
2022/06/01 13:14:03;;;;;;;9.65;2.83;;;30.90;65.30;;;;;;4993117;28;20460;-82
2022/06/01 13:16:48;;;;;;;11.27;2.10;;;30.60;64.00;;;;;;5011844;28;20121;-82
2022/06/01 13:19:17;;;;;;;9.25;2.10;;;30.60;63.80;;;;;;5013787;28;20036;-82
2022/06/01 13:21:49;;;;;;;12.88;2.05;;;30.30;65.50;;;;;;4997052;28;20026;-82
2022/06/01 13:24:15;;;;;;;5.90;2.17;;;30.20;64.50;;;;;;5013678;28;20064;-82
2022/06/01 13:26:49;;;;;;;10.23;2.10;;;30.10;64.70;;;;;;4999746;28;20030;-82
2022/06/01 13:29:19;;;;;;;11.00;2.58;;;30.10;65.30;;;;;;5010462;28;20033;-82
2022/06/01 13:31:53;;;;;;;8.23;1.98;;;29.90;65.00;;;;;;4996433;28;20026;-82
2022/06/01 13:34:30;;;;;;;5.85;2.55;;;30.10;65.40;;;;;;5009968;28;20040;-81
2022/06/01 13:37:24;;;;;;;9.52;2.47;;;29.90;64.60;;;;;;4994021;28;20030;-81
2022/06/01 13:39:53;;;;;;;6.40;1.92;;;29.90;64.80;;;;;;4993400;28;20042;-82
2022/06/01 13:42:59;;;;;;;5.40;2.17;;;29.70;65.40;;;;;;4993743;28;20058;-81
2022/06/01 13:45:50;;;;;;;10.43;2.15;;;29.60;65.20;;;;;;4988365;28;20453;-76
2022/06/01 13:48:47;;;;;;;5.93;2.00;;;30.00;65.80;;;;;;4989715;28;20034;-76
2022/06/01 13:51:48;;;;;;;12.40;2.45;;;30.20;66.10;;;;;;4988702;28;20058;-75
2022/06/01 13:54:30;;;;;;;12.32;2.53;;;30.10;66.20;;;;;;4988448;28;20062;-75
2022/06/01 13:57:16;;;;;;;12.20;1.95;;;30.20;65.20;;;;;;4973014;28;20109;-75
2022/06/01 13:59:57;;;;;;;8.02;2.15;;;29.70;65.60;;;;;;4987084;28;20026;-75
2022/06/01 14:02:45;;;;;;;8.68;2.22;;;29.80;66.00;;;;;;4993434;28;20118;-82
2022/06/01 14:05:25;;;;;;;7.00;2.00;;;30.20;66.00;;;;;;4982394;28;20031;-82
2022/06/01 14:08:04;;;;;;;10.60;2.20;;;30.00;66.80;;;;;;4974583;28;20415;-81
2022/06/01 14:10:50;;;;;;;6.95;2.05;;;29.90;64.20;;;;;;4974126;28;20029;-82
2022/06/01 14:13:19;;;;;;;9.00;2.03;;;30.00;65.80;;;;;;4972920;28;20449;-82
2022/06/01 14:15:45;;;;;;;7.30;1.90;;;29.80;66.00;;;;;;4974152;28;20430;-84
2022/06/01 14:18:18;;;;;;;7.35;2.15;;;29.80;65.80;;;;;;4988132;28;20031;-85
2022/06/01 14:20:44;;;;;;;5.88;1.80;;;29.70;65.80;;;;;;4973199;28;20033;-84
2022/06/01 14:23:09;;;;;;;8.18;2.10;;;29.60;66.10;;;;;;4975253;28;20113;-86
2022/06/01 14:28:32;;;;;;;9.23;2.05;;;30.00;66.40;;;;;;4977799;28;20541;-89
2022/06/01 14:31:13;;;;;;;6.45;1.90;;;29.80;64.30;;;;;;4982526;28;20093;-86
2022/06/01 14:33:40;;;;;;;9.20;1.98;;;29.60;65.50;;;;;;4973472;28;20027;-85
2022/06/01 14:36:08;;;;;;;7.53;1.83;;;29.80;64.80;;;;;;4975435;28;20082;-85
2022/06/01 14:38:35;;;;;;;10.00;2.40;;;29.80;64.00;;;;;;4990907;28;20034;-86
2022/06/01 14:41:04;;;;;;;10.27;2.00;;;29.90;64.30;;;;;;4973898;28;20031;-85
2022/06/01 14:43:36;;;;;;;7.18;2.00;;;29.70;64.10;;;;;;4987543;28;20129;-86
2022/06/01 14:46:07;;;;;;;6.25;2.10;;;29.60;64.80;;;;;;4976463;28;20042;-88
2022/06/01 14:48:33;;;;;;;9.15;2.08;;;29.50;63.60;;;;;;4988901;28;20105;-88
2022/06/01 14:51:07;;;;;;;15.20;2.70;;;29.80;64.50;;;;;;4989453;28;20564;-87
2022/06/01 14:53:35;;;;;;;9.77;1.80;;;29.80;63.60;;;;;;4990545;28;20065;-86
2022/06/01 14:56:01;;;;;;;8.10;2.17;;;29.80;64.00;;;;;;4985429;28;20052;-87
2022/06/01 14:58:26;;;;;;;7.72;2.22;;;29.70;64.50;;;;;;4991668;28;20037;-87
2022/06/01 15:00:54;;;;;;;6.95;2.22;;;29.50;63.40;;;;;;4977375;28;20019;-87
2022/06/01 15:03:27;;;;;;;9.50;2.30;;;29.60;64.30;;;;;;4988045;28;20049;-87
2022/06/01 15:05:53;;;;;;;6.10;2.15;;;29.80;63.70;;;;;;4991301;28;20027;-85
2022/06/01 15:08:19;;;;;;;5.60;1.83;;;29.70;62.80;;;;;;4993039;28;20054;-84
2022/06/01 15:10:44;;;;;;;7.18;2.25;;;29.70;63.50;;;;;;4983569;28;20057;-84
2022/06/01 15:13:11;;;;;;;6.35;1.65;;;29.60;64.20;;;;;;4979500;28;20031;-90
2022/06/01 15:15:38;;;;;;;5.18;1.63;;;29.70;63.60;;;;;;4984677;28;20026;-81
2022/06/01 15:18:04;;;;;;;5.43;1.70;;;29.50;64.40;;;;;;4973551;28;20034;-81
2022/06/01 15:20:30;;;;;;;12.00;1.77;;;29.80;64.30;;;;;;4973770;28;20031;-85
2022/06/01 15:22:56;;;;;;;5.90;1.85;;;29.80;64.60;;;;;;4972150;28;20122;-85
2022/06/01 15:25:22;;;;;;;10.70;2.25;;;29.70;63.80;;;;;;4985308;28;20141;-85
2022/06/01 15:27:48;;;;;;;15.77;2.50;;;29.70;64.10;;;;;;4982248;28;20022;-86
2022/06/01 15:41:11;;;;;;;15.80;2.10;;;29.80;63.10;;;;;;4994461;28;20113;-83
2022/06/01 15:43:36;;;;;;;8.48;2.13;;;29.60;63.20;;;;;;4987778;28;20117;-87
2022/06/01 15:46:02;;;;;;;4.40;2.30;;;29.60;63.60;;;;;;4975206;28;20458;-86
2022/06/01 15:48:28;;;;;;;9.63;2.60;;;29.40;63.30;;;;;;4989024;28;20058;-85
2022/06/01 15:50:56;;;;;;;7.05;2.10;;;29.50;63.70;;;;;;4987499;28;20085;-85